createdAt,value
2019-03-02T00:01:05.762Z,7.30
2019-03-02T00:03:46.145Z,7.40
2019-03-02T00:06:25.978Z,7.30
2019-03-02T00:09:05.693Z,7.40
2019-03-02T00:11:46.045Z,7.40
2019-03-02T00:14:25.750Z,7.40
2019-03-02T00:17:06.390Z,7.30
2019-03-02T00:19:46.217Z,7.40
2019-03-02T00:22:26.255Z,7.30
2019-03-02T00:25:06.179Z,7.30
2019-03-02T00:27:46.312Z,7.20
2019-03-02T00:30:25.650Z,7.40
2019-03-02T00:33:06.185Z,7.50
2019-03-02T00:35:45.929Z,7.40
2019-03-02T00:38:26.029Z,7.40
2019-03-02T00:41:07.004Z,7.30
2019-03-02T00:43:47.478Z,7.20
2019-03-02T00:46:28.645Z,7.30
2019-03-02T00:49:08.777Z,7.30
2019-03-02T00:51:48.894Z,7.30
2019-03-02T00:54:28.934Z,7.40
2019-03-02T00:57:09.121Z,7.40
2019-03-02T00:59:48.785Z,7.20
2019-03-02T01:02:28.897Z,7.20
2019-03-02T01:05:09.024Z,7.30
2019-03-02T01:07:49.212Z,7.30
2019-03-02T01:10:29.107Z,7.30
2019-03-02T01:13:09.265Z,7.10
2019-03-02T01:15:49.269Z,7.20
2019-03-02T01:18:29.637Z,7.20
2019-03-02T01:21:09.693Z,7.30
2019-03-02T01:23:49.839Z,7.20
2019-03-02T01:26:30.125Z,7.10
2019-03-02T01:29:10.080Z,7.10
2019-03-02T01:31:49.932Z,7.10
2019-03-02T01:34:30.074Z,7.10
2019-03-02T01:37:10.218Z,7.10
2019-03-02T01:39:49.778Z,7.00
2019-03-02T01:42:30.822Z,7.10
2019-03-02T01:45:11.160Z,7.10
2019-03-02T01:47:52.129Z,7.10
2019-03-02T01:50:31.952Z,7.00
2019-03-02T01:53:12.495Z,7.20
2019-03-02T01:55:52.406Z,7.20
2019-03-02T01:58:32.170Z,7.10
2019-03-02T02:01:12.867Z,7.10
2019-03-02T02:03:53.437Z,7.00
2019-03-02T02:06:34.517Z,7.10
2019-03-02T02:09:14.281Z,7.00
2019-03-02T02:11:54.706Z,7.00
2019-03-02T02:14:34.957Z,7.00
2019-03-02T02:17:17.564Z,7.00
2019-03-02T02:19:58.184Z,7.00
2019-03-02T02:22:38.695Z,7.10
2019-03-02T02:25:19.282Z,7.00
2019-03-02T02:27:59.448Z,7.00
2019-03-02T02:30:39.326Z,7.10
2019-03-02T02:33:19.243Z,7.10
2019-03-02T02:35:59.150Z,6.80
2019-03-02T02:38:38.946Z,7.00
2019-03-02T02:41:23.170Z,6.90
2019-03-02T02:44:01.532Z,6.90
2019-03-02T02:46:41.550Z,7.00
2019-03-02T02:49:21.685Z,6.90
2019-03-02T02:52:02.131Z,6.90
2019-03-02T02:54:42.376Z,7.00
2019-03-02T02:57:22.575Z,7.00
2019-03-02T03:00:02.281Z,6.90
2019-03-02T03:02:42.066Z,6.90
2019-03-02T03:05:22.500Z,6.90
2019-03-02T03:08:02.723Z,7.00
2019-03-02T03:10:43.090Z,7.00
2019-03-02T03:13:23.490Z,7.00
2019-03-02T03:16:04.717Z,6.90
2019-03-02T03:18:47.019Z,6.80
2019-03-02T03:21:27.787Z,6.80
2019-03-02T03:24:09.198Z,6.80
2019-03-02T03:26:49.922Z,6.70
2019-03-02T03:29:30.083Z,6.80
2019-03-02T03:32:12.229Z,6.80
2019-03-02T03:34:51.832Z,6.70
2019-03-02T03:37:33.114Z,6.80
2019-03-02T03:40:12.891Z,6.80
2019-03-02T03:42:53.175Z,6.80
2019-03-02T03:45:42.683Z,6.70
2019-03-02T03:48:17.795Z,6.80
2019-03-02T03:50:59.608Z,6.90
2019-03-02T03:53:39.460Z,6.70
2019-03-02T03:56:19.942Z,6.80
2019-03-02T03:58:59.682Z,6.80
2019-03-02T04:01:39.838Z,6.80
2019-03-02T04:04:19.538Z,6.80
2019-03-02T04:07:01.276Z,6.90
2019-03-02T04:09:42.817Z,6.80
2019-03-02T04:12:24.610Z,6.90
2019-03-02T04:15:05.637Z,6.90
2019-03-02T04:17:45.927Z,6.80
2019-03-02T04:20:26.394Z,6.90
2019-03-02T04:23:06.205Z,6.90
2019-03-02T04:25:46.062Z,6.80
2019-03-02T04:28:27.691Z,6.70
2019-03-02T04:31:09.002Z,6.80
2019-03-02T04:33:50.238Z,6.80
2019-03-02T04:36:31.031Z,6.90
2019-03-02T04:39:13.717Z,6.80
2019-03-02T04:41:54.005Z,6.80
2019-03-02T04:44:33.852Z,6.80
2019-03-02T04:47:13.818Z,6.70
2019-03-02T04:49:55.555Z,6.80
2019-03-02T04:52:36.099Z,6.80
2019-03-02T04:55:15.529Z,6.90
2019-03-02T04:57:56.203Z,6.80
2019-03-02T05:00:36.943Z,6.70
2019-03-02T05:03:18.981Z,6.80
2019-03-02T05:05:59.125Z,6.70
2019-03-02T05:08:41.198Z,6.80
2019-03-02T05:11:21.465Z,6.90
2019-03-02T05:14:04.305Z,6.80
2019-03-02T05:16:43.362Z,7.00
2019-03-02T05:19:25.626Z,6.80
2019-03-02T05:22:05.856Z,6.80
2019-03-02T05:24:45.938Z,6.80
2019-03-02T05:27:28.780Z,6.80
2019-03-02T05:30:08.088Z,6.70
2019-03-02T05:32:51.387Z,6.70
2019-03-02T05:35:32.321Z,6.70
2019-03-02T05:38:15.195Z,6.50
2019-03-02T05:40:54.398Z,6.70
2019-03-02T05:43:34.533Z,6.70
2019-03-02T05:46:14.425Z,6.70
2019-03-02T05:48:54.085Z,6.70
2019-03-02T05:51:34.439Z,6.70
2019-03-02T05:54:14.359Z,6.70
2019-03-02T05:56:54.678Z,6.80
2019-03-02T05:59:34.591Z,6.70
2019-03-02T06:02:17.324Z,6.80
2019-03-02T06:04:57.000Z,6.70
2019-03-02T06:07:38.098Z,6.70
2019-03-02T06:10:21.744Z,6.60
2019-03-02T06:13:00.077Z,6.70
2019-03-02T06:15:43.244Z,6.60
2019-03-02T06:18:22.422Z,6.60
2019-03-02T06:21:02.266Z,6.60
2019-03-02T06:23:42.429Z,6.80
2019-03-02T06:26:22.733Z,6.60
2019-03-02T06:29:02.570Z,6.70
2019-03-02T06:31:43.113Z,6.60
2019-03-02T06:34:22.744Z,6.60
2019-03-02T06:37:03.212Z,6.70
2019-03-02T06:39:44.468Z,6.60
2019-03-02T06:42:24.306Z,6.60
2019-03-02T06:45:05.730Z,6.40
2019-03-02T06:47:46.915Z,6.60
2019-03-02T06:50:26.704Z,6.60
2019-03-02T06:53:06.755Z,6.70
2019-03-02T06:55:46.838Z,6.50
2019-03-02T06:58:29.394Z,6.60
2019-03-02T07:01:09.013Z,6.50
2019-03-02T07:03:49.308Z,6.50
2019-03-02T07:06:29.225Z,6.50
2019-03-02T07:09:09.788Z,6.60
2019-03-02T07:11:50.353Z,6.60
2019-03-02T07:14:32.295Z,6.60
2019-03-02T07:17:14.199Z,6.60
2019-03-02T07:19:58.733Z,6.70
2019-03-02T07:22:39.082Z,6.80
2019-03-02T07:25:19.233Z,6.80
2019-03-02T07:28:01.958Z,6.70
2019-03-02T07:30:41.677Z,6.80
2019-03-02T07:33:21.670Z,6.80
2019-03-02T07:36:01.397Z,6.80
2019-03-02T07:38:41.552Z,6.90
2019-03-02T07:41:22.159Z,6.80
2019-03-02T07:44:02.775Z,6.90
2019-03-02T07:46:44.098Z,6.90
2019-03-02T07:49:25.040Z,7.00
2019-03-02T07:52:04.757Z,7.00
2019-03-02T07:54:45.101Z,7.00
2019-03-02T07:57:24.887Z,7.10
2019-03-02T08:00:05.460Z,7.00
2019-03-02T08:02:46.370Z,7.00
2019-03-02T08:05:26.306Z,7.10
2019-03-02T08:08:07.107Z,7.00
2019-03-02T08:10:47.465Z,7.00
2019-03-02T08:13:27.333Z,7.00
2019-03-02T08:16:07.369Z,7.20
2019-03-02T08:18:47.937Z,7.10
2019-03-02T08:21:27.846Z,7.10
2019-03-02T08:24:08.699Z,7.10
2019-03-02T08:26:49.145Z,7.10
2019-03-02T08:29:28.845Z,7.10
2019-03-02T08:32:10.389Z,7.20
2019-03-02T08:34:51.236Z,7.20
2019-03-02T08:37:31.654Z,7.30
2019-03-02T08:40:11.274Z,7.20
2019-03-02T08:42:51.737Z,7.30
2019-03-02T08:45:31.887Z,7.20
2019-03-02T08:48:12.434Z,7.30
2019-03-02T08:50:53.063Z,7.30
2019-03-02T08:53:34.766Z,7.40
2019-03-02T08:56:14.550Z,7.30
2019-03-02T08:58:57.890Z,7.40
2019-03-02T09:01:37.154Z,7.30
2019-03-02T09:04:17.926Z,7.30
2019-03-02T09:06:57.431Z,7.30
2019-03-02T09:09:37.913Z,7.30
2019-03-02T09:12:21.818Z,7.30
2019-03-02T09:14:59.797Z,7.30
2019-03-02T09:17:39.990Z,7.40
2019-03-02T09:20:19.401Z,7.50
2019-03-02T09:23:01.368Z,7.50
2019-03-02T09:25:42.017Z,7.30
2019-03-02T09:28:22.179Z,7.50
2019-03-02T09:31:02.348Z,7.50
2019-03-02T09:33:43.923Z,7.50
2019-03-02T09:36:24.183Z,7.50
2019-03-02T09:39:04.498Z,7.60
2019-03-02T09:41:32.309Z,7.60
2019-03-02T09:44:19.029Z,7.60
2019-03-02T09:47:08.982Z,7.70
2019-03-02T09:49:47.929Z,7.60
2019-03-02T09:52:27.889Z,7.70
2019-03-02T09:55:08.147Z,7.60
2019-03-02T09:57:48.453Z,7.70
2019-03-02T10:00:29.056Z,7.60
2019-03-02T10:03:09.149Z,7.60
2019-03-02T10:05:49.955Z,7.70
2019-03-02T10:08:31.343Z,7.70
2019-03-02T10:11:11.741Z,7.60
2019-03-02T10:13:53.558Z,7.70
2019-03-02T10:16:33.792Z,7.60
2019-03-02T10:19:13.817Z,7.70
2019-03-02T10:21:53.669Z,7.70
2019-03-02T10:24:33.381Z,7.70
2019-03-02T10:27:17.313Z,7.70
2019-03-02T10:29:56.143Z,7.70
2019-03-02T10:32:36.262Z,7.80
2019-03-02T10:35:16.975Z,7.70
2019-03-02T10:37:58.056Z,7.60
2019-03-02T10:40:37.886Z,7.60
2019-03-02T10:43:18.462Z,7.60
2019-03-02T10:45:58.533Z,7.60
2019-03-02T10:48:38.327Z,7.70
2019-03-02T10:51:18.682Z,7.70
2019-03-02T10:53:59.596Z,7.70
2019-03-02T10:56:40.478Z,7.70
2019-03-02T10:59:20.613Z,7.80
2019-03-02T11:02:00.266Z,7.80
2019-03-02T11:11:09.974Z,7.90
2019-03-02T11:14:10.041Z,7.90
2019-03-02T11:17:08.979Z,7.90
2019-03-02T11:20:05.725Z,7.70
2019-03-02T11:23:05.190Z,7.90
2019-03-02T11:25:52.676Z,7.80
2019-03-02T11:28:58.515Z,7.90
2019-03-02T11:31:49.724Z,7.90
2019-03-02T11:34:44.127Z,7.90
2019-03-02T11:37:43.730Z,7.80
2019-03-02T11:40:43.830Z,7.90
2019-03-02T11:43:43.877Z,8.10
2019-03-02T11:46:42.683Z,8.10
2019-03-02T11:49:34.865Z,8.10
2019-03-02T11:52:24.173Z,8.20
2019-03-02T11:55:18.457Z,8.00
2019-03-02T11:58:07.828Z,8.10
2019-03-02T12:00:57.887Z,8.20
2019-03-02T12:03:56.595Z,8.20
2019-03-02T12:06:57.509Z,8.20
2019-03-02T12:09:56.870Z,8.40
2019-03-02T12:12:56.734Z,8.20
2019-03-02T12:15:55.974Z,8.10
2019-03-02T12:18:55.974Z,8.20
2019-03-02T12:21:57.816Z,8.20
2019-03-02T12:24:58.470Z,8.20
2019-03-02T12:27:51.038Z,8.10
2019-03-02T12:30:50.157Z,8.10
2019-03-02T12:33:49.429Z,8.10
2019-03-02T12:36:49.086Z,8.10
2019-03-02T12:39:39.026Z,8.20
2019-03-02T12:42:38.286Z,8.30
2019-03-02T12:45:37.756Z,8.30
2019-03-02T12:48:39.742Z,8.20
2019-03-02T12:51:40.550Z,8.20
2019-03-02T12:54:39.290Z,8.20
2019-03-02T12:57:28.379Z,8.20
2019-03-02T13:00:28.091Z,8.30
2019-03-02T13:03:30.463Z,8.30
2019-03-02T13:06:28.491Z,8.20
2019-03-02T13:09:20.306Z,8.30
2019-03-02T13:12:19.973Z,8.40
2019-03-02T13:15:19.846Z,8.30
2019-03-02T13:18:09.968Z,8.20
2019-03-02T13:21:07.921Z,8.30
2019-03-02T13:24:10.260Z,8.30
2019-03-02T13:27:09.365Z,8.30
2019-03-02T13:29:59.157Z,8.40
2019-03-02T13:32:58.554Z,8.30
2019-03-02T13:35:46.856Z,8.40
2019-03-02T13:38:38.602Z,8.40
2019-03-02T13:41:30.579Z,8.30
2019-03-02T13:44:33.129Z,8.40
2019-03-02T13:47:35.670Z,8.50
2019-03-02T13:50:33.393Z,8.70
2019-03-02T13:53:39.649Z,8.80
2019-03-02T13:56:39.666Z,8.90
2019-03-02T13:59:38.904Z,8.90
2019-03-02T14:02:44.316Z,8.80
2019-03-02T14:05:42.013Z,8.90
2019-03-02T14:08:43.427Z,8.90
2019-03-02T14:11:36.370Z,8.90
2019-03-02T14:14:35.946Z,9.00
2019-03-02T14:17:35.702Z,9.00
2019-03-02T14:20:37.908Z,9.00
2019-03-02T14:23:37.313Z,9.10
2019-03-02T14:26:37.000Z,9.10
2019-03-02T14:29:25.401Z,9.20
2019-03-02T14:32:15.237Z,9.30
2019-03-02T14:35:02.250Z,9.20
2019-03-02T14:38:01.318Z,9.30
2019-03-02T14:41:00.452Z,9.30
2019-03-02T14:43:59.740Z,9.30
2019-03-02T14:47:00.067Z,9.30
2019-03-02T14:50:02.045Z,9.40
2019-03-02T14:52:45.914Z,9.50
2019-03-02T14:55:52.321Z,9.60
2019-03-02T14:58:58.771Z,9.70
2019-03-02T15:01:54.010Z,9.70
2019-03-02T15:05:00.104Z,9.70
2019-03-02T15:08:06.661Z,9.70
2019-03-02T15:11:13.608Z,9.70
2019-03-02T15:14:20.117Z,9.80
2019-03-02T15:17:15.153Z,9.60
2019-03-02T15:20:21.615Z,9.60
2019-03-02T15:23:08.574Z,9.60
2019-03-02T15:26:15.392Z,9.50
2019-03-02T15:29:21.861Z,9.50
2019-03-02T15:32:28.222Z,9.50
2019-03-02T15:35:34.989Z,9.50
2019-03-02T15:38:43.005Z,9.50
2019-03-02T15:41:49.725Z,9.60
2019-03-02T15:44:56.677Z,9.50
2019-03-02T15:47:50.753Z,9.50
2019-03-02T15:50:54.478Z,9.50
2019-03-02T15:53:52.869Z,9.50
2019-03-02T15:56:43.798Z,9.60
2019-03-02T15:59:43.608Z,9.40
2019-03-02T16:02:43.034Z,9.40
2019-03-02T16:05:49.369Z,9.30
2019-03-02T16:08:52.329Z,9.50
2019-03-02T16:11:50.552Z,9.40
2019-03-02T16:14:37.830Z,9.30
2019-03-02T16:17:44.609Z,9.40
2019-03-02T16:20:51.058Z,9.30
2019-03-02T16:23:48.322Z,9.40
2019-03-02T16:26:41.715Z,9.50
2019-03-02T16:29:28.949Z,9.40
2019-03-02T16:32:16.748Z,9.50
2019-03-02T16:35:24.736Z,9.50
2019-03-02T16:38:32.588Z,9.50
2019-03-02T16:41:38.961Z,9.30
2019-03-02T16:44:45.699Z,9.40
2019-03-02T16:47:53.015Z,9.40
2019-03-02T16:50:44.080Z,9.40
2019-03-02T16:53:43.723Z,9.30
2019-03-02T16:56:43.803Z,9.30
2019-03-02T16:59:39.121Z,9.30
2019-03-02T17:02:27.160Z,9.30
2019-03-02T17:05:28.362Z,9.10
2019-03-02T17:08:27.224Z,9.10
2019-03-02T17:11:26.786Z,9.10
2019-03-02T17:14:26.630Z,8.90
2019-03-02T17:17:26.126Z,9.00
2019-03-02T17:20:25.994Z,8.90
2019-03-02T17:23:23.982Z,8.90
2019-03-02T17:26:09.059Z,8.90
2019-03-02T17:29:14.994Z,8.90
2019-03-02T17:32:21.451Z,8.70
2019-03-02T17:35:29.175Z,8.70
2019-03-02T17:38:35.950Z,8.70
2019-03-02T17:41:42.188Z,8.70
2019-03-02T17:44:49.203Z,8.50
2019-03-02T17:47:55.850Z,8.50
2019-03-02T17:50:58.617Z,8.60
2019-03-02T17:53:48.497Z,8.50
2019-03-02T17:56:41.200Z,8.50
2019-03-02T17:59:43.259Z,8.50
2019-03-02T18:02:45.892Z,8.50
2019-03-02T18:05:43.955Z,8.50
2019-03-02T18:08:44.847Z,8.50
2019-03-02T18:11:46.531Z,8.40
2019-03-02T18:14:48.394Z,8.40
2019-03-02T18:17:55.639Z,8.30
2019-03-02T18:20:43.952Z,8.40
2019-03-02T18:23:31.561Z,8.40
2019-03-02T18:26:20.723Z,8.50
2019-03-02T18:28:50.084Z,8.50
2019-03-02T18:31:36.096Z,8.50
2019-03-02T18:34:24.105Z,8.60
2019-03-02T18:37:12.446Z,8.60
2019-03-02T18:40:02.251Z,8.50
2019-03-02T18:42:47.683Z,8.60
2019-03-02T18:45:35.864Z,8.60
2019-03-02T18:48:43.484Z,8.60
2019-03-02T18:51:44.939Z,8.60
2019-03-02T18:54:27.156Z,8.60
2019-03-02T18:57:09.810Z,8.80
2019-03-02T18:59:50.087Z,8.60
2019-03-02T19:02:30.365Z,8.60
2019-03-02T19:05:13.236Z,8.70
2019-03-02T19:07:52.637Z,8.70
2019-03-02T19:10:19.797Z,8.70
2019-03-02T19:13:08.401Z,8.70
2019-03-02T19:15:55.329Z,8.70
2019-03-02T19:18:42.047Z,8.70
2019-03-02T19:21:29.206Z,8.60
2019-03-02T19:24:15.858Z,8.60
2019-03-02T19:27:03.142Z,8.70
2019-03-02T19:29:49.633Z,8.70
2019-03-02T19:32:36.745Z,8.80
2019-03-02T19:35:24.098Z,8.80
2019-03-02T19:38:10.907Z,8.70
2019-03-02T19:40:57.640Z,8.80
2019-03-02T19:43:44.617Z,8.70
2019-03-02T19:46:31.977Z,8.80
2019-03-02T19:49:18.955Z,8.90
2019-03-02T19:51:59.412Z,8.90
2019-03-02T19:54:40.002Z,8.80
2019-03-02T19:57:19.686Z,8.80
2019-03-02T19:59:59.966Z,8.80
2019-03-02T20:02:39.366Z,8.80
2019-03-02T20:05:19.195Z,8.70
2019-03-02T20:07:58.874Z,8.70
2019-03-02T20:10:39.085Z,8.60
2019-03-02T20:13:19.121Z,9.00
2019-03-02T20:15:59.582Z,8.70
2019-03-02T20:18:39.837Z,8.70
2019-03-02T20:21:19.953Z,8.80
2019-03-02T20:24:00.001Z,8.70
2019-03-02T20:26:40.254Z,8.80
2019-03-02T20:29:20.154Z,8.80
2019-03-02T20:31:59.890Z,8.70
2019-03-02T20:34:40.526Z,8.80
2019-03-02T20:37:20.693Z,8.70
2019-03-02T20:40:00.386Z,8.70
2019-03-02T20:42:40.357Z,8.70
2019-03-02T20:45:20.932Z,8.70
2019-03-02T20:48:00.785Z,8.70
2019-03-02T20:50:40.443Z,8.80
2019-03-02T20:53:20.953Z,8.90
2019-03-02T20:56:01.011Z,8.70
2019-03-02T20:58:41.198Z,8.80
2019-03-02T21:01:23.117Z,8.80
2019-03-02T21:04:02.976Z,8.80
2019-03-02T21:06:43.029Z,8.70
2019-03-02T21:09:23.453Z,8.70
2019-03-02T21:12:03.756Z,8.90
2019-03-02T21:14:43.950Z,8.80
2019-03-02T21:17:24.301Z,8.80
2019-03-02T21:20:04.192Z,8.70
2019-03-02T21:22:44.459Z,8.80
2019-03-02T21:25:25.140Z,8.80
2019-03-02T21:28:05.362Z,8.80
2019-03-02T21:30:44.935Z,8.70
2019-03-02T21:33:25.225Z,8.80
2019-03-02T21:36:05.137Z,8.70
2019-03-02T21:38:45.298Z,8.90
2019-03-02T21:41:26.981Z,8.80
2019-03-02T21:43:55.272Z,8.80
2019-03-02T21:46:42.425Z,8.80
2019-03-02T21:49:29.873Z,8.70
2019-03-02T21:52:10.246Z,8.80
2019-03-02T21:54:49.963Z,8.80
2019-03-02T21:57:30.029Z,8.80
2019-03-02T22:00:10.154Z,8.90
2019-03-02T22:02:50.245Z,8.80
2019-03-02T22:05:30.050Z,8.90
2019-03-02T22:08:10.114Z,8.80
2019-03-02T22:10:50.333Z,8.80
2019-03-02T22:13:30.226Z,8.90
2019-03-02T22:16:10.333Z,9.00
2019-03-02T22:18:50.441Z,8.90
2019-03-02T22:21:30.796Z,8.90
2019-03-02T22:24:10.416Z,8.90
2019-03-02T22:26:50.939Z,8.90
2019-03-02T22:29:32.473Z,8.90
2019-03-02T22:32:12.406Z,8.90
2019-03-02T22:34:52.653Z,8.90
2019-03-02T22:37:32.581Z,8.90
2019-03-02T22:40:13.589Z,8.90
2019-03-02T22:42:55.231Z,9.00
2019-03-02T22:45:37.678Z,8.90
2019-03-02T22:48:18.051Z,8.90
2019-03-02T22:50:58.585Z,8.90
2019-03-02T22:53:38.572Z,8.90
2019-03-02T22:56:18.542Z,8.80
2019-03-02T22:58:58.443Z,8.90
2019-03-02T23:01:39.265Z,9.00
2019-03-02T23:04:19.319Z,9.00
2019-03-02T23:06:59.682Z,9.00
2019-03-02T23:09:39.630Z,9.00
2019-03-02T23:12:19.686Z,9.00
2019-03-02T23:14:59.694Z,8.90
2019-03-02T23:17:39.613Z,8.90
2019-03-02T23:20:19.523Z,8.90
2019-03-02T23:22:59.769Z,8.90
2019-03-02T23:25:39.346Z,8.90
2019-03-02T23:28:19.700Z,8.90
2019-03-02T23:31:00.194Z,8.90
2019-03-02T23:33:40.375Z,8.90
2019-03-02T23:36:20.485Z,8.90
2019-03-02T23:39:00.344Z,8.80
2019-03-02T23:41:40.910Z,8.90
2019-03-02T23:44:20.885Z,8.90
2019-03-02T23:47:00.720Z,8.90
2019-03-02T23:49:40.862Z,8.90
2019-03-02T23:52:21.019Z,8.90
2019-03-02T23:55:01.410Z,8.90
2019-03-02T23:57:41.225Z,8.90
